Weaver, AL

8:59 PM CDT on August 27, 2014 (GMT -0500)
Albertville | Change Station
CLOSE
Current Station
Airport
Location: Albertville,
Elevation: 1033 ft
Nearby Weather Stations

Elev 1033 ft 34.23 °N, 86.26 °W | Updated 24 minutes ago

Scattered Clouds
Scattered Clouds
77 °F
Feels Like 77 °F
N
4
Wind Variable Wind from NW

Today
High -- | Low -- °F
--% Chance of Precip.
Yesterday
High -- | Low -- °F
Precip. -- in
6:13 AM 7:15 PM
Waxing Crescent, 6% visible
Pressure 30.06 in
Visibility 10.0 miles
Clouds Scattered Clouds 6000 ft
Dew Point 70 °F
Humidity 78%
Rainfall 0.00 in
Snow Depth Not available.
UV 0 out of 12
Pollen 9.30 out of 12
Ozone Good
PM2.5 Good
Flu Activity Not available.
METAR K8A0 280135Z AUTO 32003KT 10SM SCT060 25/21 A3006 RMK AO2

More Conditions Fewer Conditions

Pressure 30.06 in
Visibility 10.0 miles
Clouds Scattered Clouds 6000 ft
Dew Point 70 °F
Humidity 78%
Rainfall 0.00 in
Snow Depth Not available.
UV 0 out of 12
Pollen 9.30 out of 12
Ozone Good
PM2.5 Good
Flu Activity Not available.
METAR K8A0 280135Z AUTO 32003KT 10SM SCT060 25/21 A3006 RMK AO2

More Conditions Fewer Conditions

10-Day Weather Forecast

Almanac

Astronomy

Aug. 27, 2014 Rise Set
Actual Time 6:13 AM CDT 7:15 PM CDT
Civil Twilight 5:47 AM CDT 7:40 PM CDT
Nautical Twilight 5:17 AM CDT 8:11 PM CDT
Astronomical Twilight 4:46 AM CDT 8:42 PM CDT
Moon 8:01 AM CDT (8/27) 8:15 PM CDT (8/27)
Length of Visible Light 13h 52m
Length of Day
13h 01m
Tomorrow will be 1m 58s shorter.
Waxing Crescent, 6% of the Moon is Illuminated
Today
Waxing Crescent
Sep 2
First Quarter
Sep 8
Full
Sep 15
Last Quarter
Sep 24
New

Today's Extremes

State Highs State Lows

Community

WunderPhotos

Upload Photos

1,747,855 photos uploaded!

Nearby

Air Quality

  Air Quality AQ Index Pollutant
Yesterday Good
PM10
Yesterday Good
OZONE
Current Good
PM2.5
Current Good
OZONE
Wednesday Unhealthy for Sensitive Groups
OZONE
Wednesday Moderate
PM2.5
Thursday Unhealthy for Sensitive Groups
OZONE
Thursday Moderate
PM2.5

Snow Depth

Station Depth Elevation
No new snow has been reported.

Earthquake Activity

City Distance Mag. Time & Date
No recent earthquake activity has been reported nearby.
Minimum magnitude displayed is 2.5.

Coastal Water Temperatures

Place Temperature
No Stations Reporting

Nearby Weather Stations